createdAt,value
2023-08-07T00:07:42.195Z,80.91
2023-08-07T00:17:46.653Z,78.95
2023-08-07T00:27:49.731Z,79.04
2023-08-07T00:37:54.384Z,79.42
2023-08-07T00:47:57.695Z,79.47
2023-08-07T00:58:07.440Z,79.54
2023-08-07T01:08:41.801Z,79.86
2023-08-07T01:18:56.224Z,78.67
2023-08-07T01:29:07.966Z,80.61
2023-08-07T01:39:12.195Z,79.52
2023-08-07T01:49:16.614Z,80.42
2023-08-07T01:59:19.535Z,78.54
2023-08-07T02:09:24.738Z,78.11
2023-08-07T02:19:27.685Z,77.54
2023-08-07T02:29:35.320Z,77.63
2023-08-07T02:39:49.073Z,64.90
2023-08-07T02:49:55.321Z,59.24
2023-08-07T03:00:00.282Z,52.99
2023-08-07T03:10:43.730Z,50.17
2023-08-07T03:42:02.001Z,47.68
2023-08-07T03:52:08.222Z,47.25
2023-08-07T04:02:14.786Z,45.47
2023-08-07T04:12:18.030Z,43.27
2023-08-07T04:22:22.431Z,41.92
2023-08-07T04:32:26.765Z,41.62
2023-08-07T04:42:31.427Z,41.22
2023-08-07T04:52:34.318Z,39.72
2023-08-07T05:02:38.848Z,37.71
2023-08-07T05:12:41.901Z,37.56
2023-08-07T05:22:53.841Z,37.53
2023-08-07T05:32:56.977Z,35.96
2023-08-07T05:43:01.041Z,34.68
2023-08-07T05:53:03.830Z,35.64
2023-08-07T06:03:08.356Z,36.25
2023-08-07T06:13:19.897Z,36.06
2023-08-07T06:23:30.943Z,35.01
2023-08-07T06:33:36.726Z,34.46
2023-08-07T06:43:41.060Z,34.86
2023-08-07T06:53:46.953Z,35.90
2023-08-07T07:03:54.194Z,36.95
2023-08-07T07:13:57.298Z,35.52
2023-08-07T07:24:05.218Z,35.96
2023-08-07T07:34:08.200Z,35.35
2023-08-07T07:44:14.901Z,37.15
2023-08-07T07:54:17.977Z,37.04
2023-08-07T08:04:24.363Z,37.32
2023-08-07T08:14:33.331Z,37.85
2023-08-07T08:24:44.785Z,38.36
2023-08-07T08:34:51.462Z,38.07
2023-08-07T08:45:03.618Z,38.02
2023-08-07T08:55:07.947Z,37.66
2023-08-07T09:05:17.078Z,37.86
2023-08-07T09:15:21.196Z,37.03
2023-08-07T09:25:32.405Z,37.38
2023-08-07T09:35:35.817Z,37.04
2023-08-07T09:45:43.527Z,37.30
2023-08-07T09:55:52.636Z,37.15
2023-08-07T10:05:57.628Z,37.14
2023-08-07T10:16:04.826Z,36.68
2023-08-07T10:26:15.962Z,36.89
2023-08-07T10:36:21.741Z,37.19
2023-08-07T10:46:26.705Z,37.51
2023-08-07T10:56:34.594Z,37.20
2023-08-07T11:06:40.597Z,36.27
2023-08-07T11:16:44.561Z,36.78
2023-08-07T11:26:49.379Z,36.04
2023-08-07T11:37:04.668Z,36.96
2023-08-07T11:47:12.767Z,36.34
2023-08-07T11:57:21.764Z,36.90
2023-08-07T12:07:29.188Z,36.83
2023-08-07T12:17:36.401Z,36.89
2023-08-07T12:27:43.518Z,36.46
2023-08-07T12:37:48.261Z,37.03
2023-08-07T12:47:55.548Z,37.15
2023-08-07T12:58:00.044Z,37.70
2023-08-07T13:08:04.768Z,38.58
2023-08-07T13:18:07.956Z,38.24
2023-08-07T13:28:12.535Z,39.27
2023-08-07T13:38:16.513Z,38.57
2023-08-07T13:48:28.078Z,38.57
2023-08-07T13:58:33.778Z,38.97
2023-08-07T14:08:38.862Z,38.64
2023-08-07T14:18:42.193Z,37.85
2023-08-07T14:28:53.538Z,38.02
2023-08-07T14:38:58.393Z,38.72
2023-08-07T14:49:06.229Z,39.40
2023-08-07T14:59:12.804Z,39.58
2023-08-07T15:09:18.629Z,41.24
2023-08-07T15:19:24.200Z,41.60
2023-08-07T15:29:32.710Z,43.06
2023-08-07T15:39:35.847Z,45.16
2023-08-07T15:49:40.148Z,44.07
2023-08-07T15:59:44.745Z,44.61
2023-08-07T16:09:51.066Z,45.47
2023-08-07T16:19:54.012Z,45.45
2023-08-07T16:30:04.928Z,46.40
2023-08-07T16:40:09.526Z,46.78
2023-08-07T16:50:14.130Z,48.32
2023-08-07T17:00:20.200Z,49.70
2023-08-07T17:10:24.490Z,50.53
2023-08-07T17:20:29.241Z,50.97
2023-08-07T17:30:36.808Z,52.20
2023-08-07T17:40:39.944Z,52.56
2023-08-07T17:50:45.036Z,53.71
2023-08-07T18:00:51.986Z,53.77
2023-08-07T18:11:03.433Z,54.95
2023-08-07T18:21:06.396Z,55.24
2023-08-07T18:31:13.658Z,56.01
2023-08-07T18:41:19.364Z,56.71
2023-08-07T18:51:26.731Z,57.88
2023-08-07T19:01:32.413Z,59.25
2023-08-07T19:11:37.005Z,59.25
2023-08-07T19:21:40.432Z,59.05
2023-08-07T19:31:49.109Z,59.62
2023-08-07T19:41:54.616Z,60.29
2023-08-07T19:52:04.576Z,60.96
2023-08-07T20:02:09.017Z,61.01
2023-08-07T20:12:18.608Z,60.91
2023-08-07T20:22:24.540Z,60.40
2023-08-07T20:32:30.349Z,61.92
2023-08-07T20:42:36.672Z,61.83
2023-08-07T20:52:41.294Z,61.79
2023-08-07T21:02:44.752Z,62.29
2023-08-07T21:12:49.438Z,63.63
2023-08-07T21:22:52.657Z,64.67
2023-08-07T21:32:57.114Z,64.95
2023-08-07T21:43:10.224Z,65.50
2023-08-07T21:53:14.576Z,66.40
2023-08-07T22:03:19.947Z,67.05
2023-08-07T22:13:25.245Z,68.88
2023-08-07T22:23:33.754Z,69.19
2023-08-07T22:33:40.832Z,69.32
2023-08-07T22:43:44.228Z,68.91
2023-08-07T22:53:48.857Z,70.09
2023-08-07T23:03:52.060Z,72.48
2023-08-07T23:13:56.847Z,72.95
2023-08-07T23:24:00.006Z,72.29
2023-08-07T23:34:05.826Z,72.86
2023-08-07T23:44:08.741Z,73.70
2023-08-07T23:54:14.584Z,74.09
